Time;durP1;ratioP1;P1;durP2;ratioP2;P2;SDS_P1;SDS_P2;PMS_P1;PMS_P2;Temp;Humidity;BMP_temperature;BMP_pressure;BME280_temperature;BME280_humidity;BME280_pressure;Samples;Min_cycle;Max_cycle;Signal;HPM_P1;HPM_P2
2022/03/21 00:00:54;;;;;;;51.65;36.75;;;6.20;99.90;;;;;;4995197;28;20053;-73
2022/03/21 00:03:20;;;;;;;;;;;6.20;99.90;;;;;;4983152;28;20104;-73
2022/03/21 00:05:46;;;;;;;47.88;32.80;;;6.20;99.90;;;;;;5002131;28;19922;-72
2022/03/21 00:08:17;;;;;;;49.92;34.30;;;6.20;99.90;;;;;;4985559;28;20058;-72
2022/03/21 00:10:43;;;;;;;49.17;32.72;;;6.20;99.90;;;;;;5002016;28;20073;-74
2022/03/21 00:13:09;;;;;;;48.55;33.83;;;6.30;99.90;;;;;;5001962;28;20132;-74
2022/03/21 00:15:35;;;;;;;46.35;30.58;;;6.20;99.90;;;;;;4984636;28;20435;-75
2022/03/21 00:18:03;;;;;;;45.97;30.02;;;6.30;99.90;;;;;;5001862;28;20438;-73
2022/03/21 00:20:30;;;;;;;46.45;30.73;;;6.30;99.90;;;;;;4984616;28;20057;-73
2022/03/21 00:22:56;;;;;;;43.60;29.30;;;6.30;99.90;;;;;;4984311;28;20082;-72
2022/03/21 00:25:22;;;;;;;44.78;29.75;;;6.30;99.90;;;;;;5001914;28;20081;-73
2022/03/21 00:27:48;;;;;;;42.17;27.08;;;6.30;99.90;;;;;;5001725;28;20341;-73
2022/03/21 00:30:15;;;;;;;45.17;28.77;;;6.30;99.90;;;;;;4980906;28;20117;-71
2022/03/21 00:32:41;;;;;;;43.40;29.52;;;6.30;99.90;;;;;;4982268;28;20429;-73
2022/03/21 00:35:09;;;;;;;43.50;28.67;;;6.40;99.90;;;;;;4997485;28;20094;-74
2022/03/21 00:37:38;;;;;;;40.83;27.88;;;6.40;99.90;;;;;;4984309;28;20054;-75
2022/03/21 00:40:07;;;;;;;42.42;27.48;;;6.40;99.90;;;;;;4982126;28;20130;-73
2022/03/21 00:42:34;;;;;;;40.78;27.10;;;6.30;99.90;;;;;;4982148;28;20066;-73
2022/03/21 00:45:04;;;;;;;37.83;26.48;;;6.40;99.90;;;;;;4997751;28;20047;-74
2022/03/21 00:47:31;;;;;;;39.22;25.70;;;6.40;99.90;;;;;;4982947;28;20093;-73
2022/03/21 00:49:57;;;;;;;40.95;26.25;;;6.40;99.90;;;;;;4980910;28;20046;-74
2022/03/21 00:52:23;;;;;;;39.13;25.25;;;6.40;99.90;;;;;;4964905;28;20062;-71
2022/03/21 00:54:49;;;;;;;36.17;24.27;;;6.40;99.90;;;;;;4997722;28;20367;-73
2022/03/21 00:57:14;;;;;;;35.22;23.83;;;6.40;99.90;;;;;;4997447;28;20050;-72
2022/03/21 00:59:40;;;;;;;37.30;24.92;;;6.60;99.90;;;;;;4997490;28;20050;-74
2022/03/21 01:02:08;;;;;;;32.10;22.95;;;6.40;99.90;;;;;;4984627;28;20050;-73
2022/03/21 01:04:34;;;;;;;37.42;22.13;;;6.40;99.90;;;;;;4984748;28;20042;-72
2022/03/21 01:06:59;;;;;;;34.67;22.33;;;6.40;99.90;;;;;;5001295;28;20082;-73
2022/03/21 01:09:25;;;;;;;34.60;22.27;;;6.40;99.90;;;;;;4984027;28;20107;-73
2022/03/21 01:11:51;;;;;;;37.20;23.10;;;6.40;99.90;;;;;;5001623;28;20050;-72
2022/03/21 01:14:16;;;;;;;34.80;22.08;;;6.40;99.90;;;;;;4998785;28;20076;-75
2022/03/21 01:16:42;;;;;;;35.13;22.60;;;6.40;99.90;;;;;;4998568;28;20108;-72
2022/03/21 01:19:07;;;;;;;33.05;23.08;;;6.40;99.90;;;;;;4998243;28;20348;-73
2022/03/21 01:21:33;;;;;;;30.02;20.40;;;6.40;99.90;;;;;;4998159;28;20371;-73
2022/03/21 01:23:59;;;;;;;31.88;22.15;;;6.40;99.90;;;;;;4998450;28;20459;-73
2022/03/21 01:26:25;;;;;;;35.05;20.77;;;6.40;99.90;;;;;;4998264;28;20050;-75
2022/03/21 01:28:50;;;;;;;32.40;20.25;;;6.40;99.90;;;;;;4997380;28;20114;-73
2022/03/21 01:31:16;;;;;;;31.90;21.10;;;6.40;99.90;;;;;;4998248;28;20466;-74
2022/03/21 01:33:42;;;;;;;31.25;21.20;;;6.40;99.90;;;;;;4964534;28;20058;-72
2022/03/21 01:36:08;;;;;;;31.40;19.95;;;6.40;99.90;;;;;;4998100;28;20042;-74
2022/03/21 01:38:34;;;;;;;30.50;19.48;;;6.40;99.90;;;;;;4997898;28;20042;-75
2022/03/21 01:41:00;;;;;;;27.55;18.33;;;6.40;99.90;;;;;;4998254;28;20054;-73
2022/03/21 01:43:26;;;;;;;26.40;17.48;;;6.40;99.90;;;;;;4997358;28;20121;-73
2022/03/21 01:45:52;;;;;;;29.88;18.60;;;6.40;99.90;;;;;;4997747;28;20081;-73
2022/03/21 01:48:18;;;;;;;31.67;17.42;;;6.40;99.90;;;;;;4997684;28;20042;-73
2022/03/21 01:50:44;;;;;;;26.35;17.73;;;6.40;99.90;;;;;;4997650;28;20108;-71
2022/03/21 01:55:59;;;;;;;30.55;19.42;;;6.30;99.90;;;;;;4980537;28;20058;-72
2022/03/21 01:58:25;;;;;;;26.50;17.40;;;6.20;99.90;;;;;;4997312;28;20415;-74
2022/03/21 02:00:51;;;;;;;28.52;18.48;;;6.20;99.90;;;;;;4980008;28;20053;-73
2022/03/21 02:03:19;;;;;;;28.55;18.40;;;6.10;99.90;;;;;;4997386;28;20057;-73
2022/03/21 02:05:47;;;;;;;29.42;17.67;;;6.10;99.90;;;;;;4997553;28;20058;-72
2022/03/21 02:08:13;;;;;;;30.17;18.27;;;6.00;99.90;;;;;;4997554;28;20064;-73
2022/03/21 02:10:41;;;;;;;27.42;18.30;;;6.00;99.90;;;;;;4979868;28;20046;-73
2022/03/21 02:13:08;;;;;;;29.65;18.63;;;6.00;99.90;;;;;;4964946;28;20168;-73
2022/03/21 02:15:34;;;;;;;28.55;17.40;;;5.90;99.90;;;;;;4979655;28;20073;-73
2022/03/21 02:18:01;;;;;;;26.95;17.52;;;5.90;99.90;;;;;;4997423;28;20100;-71
2022/03/21 02:20:30;;;;;;;29.13;17.17;;;5.80;99.90;;;;;;4997223;28;20056;-72
2022/03/21 02:23:18;;;;;;;23.85;16.17;;;5.70;99.90;;;;;;4980332;28;20104;-71
2022/03/21 02:25:44;;;;;;;24.77;17.42;;;5.60;99.90;;;;;;4996004;28;20061;-73
2022/03/21 02:28:13;;;;;;;28.98;16.98;;;5.00;99.90;;;;;;4996390;28;20450;-74
2022/03/21 02:30:41;;;;;;;27.50;17.35;;;5.40;99.90;;;;;;4997309;28;20125;-73
2022/03/21 02:33:07;;;;;;;31.23;18.10;;;5.40;99.90;;;;;;4997026;28;20058;-71
2022/03/21 02:35:33;;;;;;;32.92;17.50;;;5.30;99.90;;;;;;4997142;28;20078;-72
2022/03/21 02:38:00;;;;;;;30.30;16.85;;;5.10;99.90;;;;;;4996976;28;20046;-72
2022/03/21 02:40:26;;;;;;;31.13;17.35;;;5.00;99.90;;;;;;4996180;28;20046;-72
2022/03/21 02:42:52;;;;;;;35.38;18.17;;;5.00;99.90;;;;;;4979613;28;20078;-74
2022/03/21 02:45:17;;;;;;;26.38;17.15;;;4.90;99.90;;;;;;4996623;28;20446;-73
2022/03/21 02:47:43;;;;;;;29.20;17.88;;;4.80;99.90;;;;;;4995710;28;20085;-73
2022/03/21 02:50:15;;;;;;;33.60;19.33;;;4.70;99.90;;;;;;4996697;28;20370;-73
2022/03/21 02:52:42;;;;;;;30.25;19.05;;;4.70;99.90;;;;;;4979393;28;20050;-72
2022/03/21 02:55:08;;;;;;;35.03;19.90;;;4.70;99.90;;;;;;4996363;28;20053;-72
2022/03/21 02:57:33;;;;;;;33.95;20.92;;;4.60;99.90;;;;;;4996389;28;20038;-72
2022/03/21 02:59:59;;;;;;;34.47;20.27;;;4.60;99.90;;;;;;4978947;28;20046;-73
2022/03/21 03:02:25;;;;;;;31.02;19.60;;;4.60;99.90;;;;;;4996247;28;20053;-73
2022/03/21 03:04:51;;;;;;;34.10;21.65;;;4.50;99.90;;;;;;4979314;28;20064;-72
2022/03/21 03:07:17;;;;;;;35.47;20.58;;;4.40;99.90;;;;;;4979008;28;20129;-72
2022/03/21 03:09:42;;;;;;;36.70;21.05;;;4.40;99.90;;;;;;4996137;28;20042;-73
2022/03/21 03:12:08;;;;;;;36.03;21.98;;;4.40;99.90;;;;;;4996213;28;20046;-72
2022/03/21 03:14:34;;;;;;;39.63;22.63;;;4.30;99.90;;;;;;4979302;28;20054;-73
2022/03/21 03:17:01;;;;;;;37.97;22.25;;;4.30;99.90;;;;;;4979236;28;20340;-73
2022/03/21 03:19:27;;;;;;;32.25;19.88;;;4.20;99.90;;;;;;4996400;28;20108;-72
2022/03/21 03:21:54;;;;;;;35.55;20.88;;;4.20;99.90;;;;;;4978419;28;20042;-74
2022/03/21 03:24:23;;;;;;;31.33;20.75;;;4.10;99.90;;;;;;4995713;28;20439;-72
2022/03/21 03:26:49;;;;;;;35.95;22.00;;;4.10;99.90;;;;;;4978565;28;20038;-73
2022/03/21 03:29:15;;;;;;;36.47;21.75;;;4.00;99.90;;;;;;4995896;28;20038;-74
2022/03/21 03:31:40;;;;;;;35.75;21.08;;;4.00;99.90;;;;;;4995921;28;20451;-72
2022/03/21 03:34:06;;;;;;;35.92;21.10;;;3.90;99.90;;;;;;4995825;28;20459;-73
2022/03/21 03:36:32;;;;;;;36.05;20.08;;;3.90;99.90;;;;;;4995337;28;20047;-76
2022/03/21 03:38:58;;;;;;;30.13;19.63;;;3.80;99.90;;;;;;4995853;28;20038;-72
2022/03/21 03:41:24;;;;;;;33.00;21.38;;;3.80;99.90;;;;;;4978575;28;20046;-73
2022/03/21 03:43:50;;;;;;;37.45;22.48;;;3.80;99.90;;;;;;4995827;28;20057;-73
2022/03/21 03:46:19;;;;;;;34.75;20.83;;;3.70;99.90;;;;;;4996397;28;20053;-73
2022/03/21 03:48:46;;;;;;;35.72;21.30;;;3.60;99.90;;;;;;4978754;28;20137;-73
2022/03/21 03:51:12;;;;;;;42.58;20.98;;;3.60;99.90;;;;;;4995077;28;20050;-74
2022/03/21 03:53:39;;;;;;;35.78;20.35;;;3.50;99.90;;;;;;4995265;28;20160;-73
2022/03/21 03:56:08;;;;;;;36.95;22.35;;;3.50;99.90;;;;;;4979011;28;20046;-73
2022/03/21 03:58:35;;;;;;;40.47;21.30;;;3.40;99.90;;;;;;4974213;28;20042;-73
2022/03/21 04:01:04;;;;;;;39.85;20.95;;;3.40;99.90;;;;;;4995562;28;20047;-72
2022/03/21 04:03:45;;;;;;;35.20;21.27;;;3.40;99.90;;;;;;4995343;28;20430;-73
2022/03/21 04:06:21;;;;;;;34.97;21.77;;;3.30;99.90;;;;;;4978661;28;20493;-73
2022/03/21 04:08:48;;;;;;;33.40;21.20;;;3.20;99.90;;;;;;4995563;28;20065;-72
2022/03/21 04:11:15;;;;;;;35.13;21.27;;;3.20;99.90;;;;;;4995442;28;20046;-73
2022/03/21 04:13:41;;;;;;;30.88;20.80;;;3.10;99.90;;;;;;4995625;28;20443;-73
2022/03/21 04:16:08;;;;;;;39.03;22.58;;;3.10;99.90;;;;;;4978227;28;20145;-73
2022/03/21 04:18:35;;;;;;;36.42;21.83;;;3.00;99.90;;;;;;4995234;28;20078;-75
2022/03/21 04:21:00;;;;;;;35.28;20.83;;;3.10;99.90;;;;;;4995476;28;20046;-73
2022/03/21 04:23:26;;;;;;;35.00;21.85;;;3.00;99.90;;;;;;4995502;28;20056;-73
2022/03/21 04:25:51;;;;;;;39.55;22.08;;;2.90;99.90;;;;;;4995598;28;20058;-74
2022/03/21 04:28:17;;;;;;;35.00;21.30;;;2.90;99.90;;;;;;4994623;28;20046;-73
2022/03/21 04:30:43;;;;;;;37.30;22.52;;;2.80;99.90;;;;;;4994744;28;20101;-72
2022/03/21 04:33:10;;;;;;;37.72;21.73;;;2.80;99.90;;;;;;4995161;28;20096;-72
2022/03/21 04:35:37;;;;;;;34.40;20.75;;;2.80;99.90;;;;;;4995037;28;20508;-74
2022/03/21 04:38:03;;;;;;;36.45;21.95;;;2.70;99.90;;;;;;4995426;28;20046;-72
2022/03/21 04:40:29;;;;;;;36.45;22.15;;;2.70;99.90;;;;;;4995262;28;20093;-73
2022/03/21 04:42:54;;;;;;;36.22;21.85;;;2.60;99.90;;;;;;4994767;28;20450;-74
2022/03/21 04:45:20;;;;;;;36.97;21.50;;;2.60;99.90;;;;;;4994733;28;20050;-73
2022/03/21 04:47:46;;;;;;;38.28;21.08;;;2.50;99.90;;;;;;4995042;28;20177;-75
2022/03/21 04:50:12;;;;;;;42.17;21.35;;;2.50;99.90;;;;;;4963118;28;20054;-74
2022/03/21 04:52:38;;;;;;;34.38;20.83;;;2.40;99.90;;;;;;4998468;28;20045;-75
2022/03/21 04:55:06;;;;;;;33.15;20.30;;;2.40;99.90;;;;;;4981749;28;20121;-71
2022/03/21 04:57:31;;;;;;;34.28;20.75;;;2.40;99.90;;;;;;4998306;28;20407;-74
2022/03/21 04:59:57;;;;;;;34.22;21.20;;;2.30;99.90;;;;;;4981070;28;20093;-74
2022/03/21 05:02:22;;;;;;;38.17;22.02;;;2.30;99.90;;;;;;4998630;28;20046;-71
2022/03/21 05:04:48;;;;;;;40.08;23.00;;;2.30;99.90;;;;;;4998496;28;20421;-73
2022/03/21 05:07:16;;;;;;;36.35;21.13;;;2.20;99.90;;;;;;4998481;28;20121;-74
2022/03/21 05:09:42;;;;;;;39.00;21.40;;;2.20;99.90;;;;;;4998674;28;20117;-72
2022/03/21 05:12:09;;;;;;;37.78;21.77;;;2.20;99.90;;;;;;4998510;28;20051;-74
2022/03/21 05:14:35;;;;;;;36.90;21.45;;;2.10;99.90;;;;;;4998375;28;20054;-73
2022/03/21 05:17:02;;;;;;;34.20;20.40;;;2.30;99.90;;;;;;4998145;28;20058;-73
2022/03/21 05:19:32;;;;;;;41.47;23.65;;;2.20;99.90;;;;;;4998669;28;20039;-73
2022/03/21 05:21:57;;;;;;;40.45;22.67;;;2.10;99.90;;;;;;4998099;28;20092;-72
2022/03/21 05:32:35;;;;;;;39.38;22.65;;;2.10;99.90;;;;;;4999818;28;20046;-73
2022/03/21 05:37:45;;;;;;;35.10;21.52;;;2.10;99.90;;;;;;4997774;28;20042;-72
2022/03/21 05:42:57;;;;;;;45.58;22.15;;;2.10;99.90;;;;;;4997865;28;20043;-71
2022/03/21 05:45:23;;;;;;;44.78;23.90;;;2.10;99.90;;;;;;4998197;28;20054;-72
2022/03/21 05:50:37;;;;;;;38.17;21.88;;;2.40;99.90;;;;;;4997609;28;20047;-73
2022/03/21 05:53:04;;;;;;;39.95;22.50;;;2.00;99.90;;;;;;4997812;28;20054;-72
2022/03/21 05:55:30;;;;;;;38.53;22.60;;;2.00;99.90;;;;;;4997775;28;20046;-73
2022/03/21 05:57:57;;;;;;;45.30;23.33;;;2.00;99.90;;;;;;4997079;28;20042;-71
2022/03/21 06:00:23;;;;;;;39.03;22.42;;;2.10;99.90;;;;;;4979713;28;20054;-73
2022/03/21 06:02:51;;;;;;;36.58;21.35;;;2.10;99.90;;;;;;4997598;28;20452;-72
2022/03/21 06:05:20;;;;;;;39.42;22.00;;;2.10;99.90;;;;;;4996974;28;20054;-72
2022/03/21 06:07:46;;;;;;;41.15;22.05;;;2.10;99.90;;;;;;4980061;28;20055;-74
2022/03/21 06:10:12;;;;;;;37.08;23.25;;;2.10;99.90;;;;;;4997699;28;20039;-73
2022/03/21 06:12:39;;;;;;;40.35;24.63;;;2.10;99.90;;;;;;4997218;28;20078;-72
2022/03/21 06:15:06;;;;;;;36.08;21.85;;;2.20;99.90;;;;;;4979900;28;20050;-74
2022/03/21 06:17:39;;;;;;;37.60;21.70;;;2.20;99.90;;;;;;4980293;28;20120;-71
2022/03/21 06:20:13;;;;;;;40.27;22.20;;;2.30;99.90;;;;;;4980543;28;20050;-73
2022/03/21 06:22:39;;;;;;;37.03;21.88;;;2.30;99.90;;;;;;4997213;28;20058;-72
2022/03/21 06:25:07;;;;;;;41.97;22.48;;;2.40;99.90;;;;;;4980292;28;20046;-72
2022/03/21 06:27:34;;;;;;;37.70;21.83;;;2.50;99.90;;;;;;4979584;28;20057;-72
2022/03/21 06:30:00;;;;;;;39.40;22.65;;;2.50;99.90;;;;;;4997217;28;20366;-72
2022/03/21 06:32:26;;;;;;;44.75;25.08;;;2.60;99.90;;;;;;4998909;28;20465;-71
2022/03/21 06:34:52;;;;;;;49.95;25.27;;;2.70;99.90;;;;;;4995195;28;20062;-69
2022/03/21 06:37:21;;;;;;;40.25;24.60;;;2.70;99.90;;;;;;4995992;28;20050;-71
2022/03/21 06:39:46;;;;;;;46.17;25.35;;;2.80;99.90;;;;;;5015410;28;20046;-68
2022/03/21 06:42:14;;;;;;;43.55;25.42;;;2.80;99.90;;;;;;5008332;28;21577;-70
2022/03/21 06:44:41;;;;;;;42.17;26.33;;;2.90;99.90;;;;;;4993399;28;20090;-70
2022/03/21 06:47:07;;;;;;;47.40;25.88;;;3.00;99.90;;;;;;4976879;28;20050;-70
2022/03/21 06:49:33;;;;;;;50.45;28.98;;;3.10;99.90;;;;;;4995635;28;20046;-72
2022/03/21 06:52:02;;;;;;;46.30;26.13;;;3.20;99.90;;;;;;4995510;28;20363;-71
2022/03/21 06:54:29;;;;;;;43.90;26.38;;;3.30;99.90;;;;;;4977999;28;20046;-70
2022/03/21 06:56:55;;;;;;;50.97;28.05;;;3.40;99.90;;;;;;4977960;28;20121;-70
2022/03/21 06:59:21;;;;;;;49.97;28.30;;;3.60;99.90;;;;;;4998637;28;20141;-71
2022/03/21 07:01:47;;;;;;;51.50;27.67;;;3.70;99.90;;;;;;5006152;28;20046;-70
2022/03/21 07:04:13;;;;;;;42.17;26.98;;;3.80;99.90;;;;;;4979115;28;20430;-71
2022/03/21 07:06:38;;;;;;;46.83;26.98;;;4.00;99.90;;;;;;4995395;28;20466;-71
2022/03/21 07:09:04;;;;;;;44.05;26.38;;;4.10;99.90;;;;;;4978678;28;20522;-70
2022/03/21 07:11:29;;;;;;;42.28;24.95;;;4.20;99.90;;;;;;4994645;28;20090;-70
2022/03/21 07:13:55;;;;;;;46.85;27.30;;;4.40;99.90;;;;;;4978364;28;20050;-68
2022/03/21 07:16:21;;;;;;;42.97;25.13;;;4.50;99.90;;;;;;4974137;28;20360;-69
2022/03/21 07:18:48;;;;;;;42.13;26.65;;;4.70;99.90;;;;;;4995780;28;20116;-72
2022/03/21 07:21:15;;;;;;;37.28;24.55;;;4.80;99.90;;;;;;4995263;28;20517;-72
2022/03/21 07:23:41;;;;;;;41.78;25.55;;;5.00;99.90;;;;;;4995180;28;20076;-69
2022/03/21 07:26:06;;;;;;;40.63;24.63;;;5.10;99.90;;;;;;4978326;28;20447;-70
2022/03/21 07:28:32;;;;;;;35.15;22.48;;;5.30;99.90;;;;;;4995074;28;20038;-69
2022/03/21 07:30:57;;;;;;;33.50;21.25;;;5.30;99.90;;;;;;4995724;28;20047;-69
2022/03/21 07:33:26;;;;;;;34.85;23.02;;;5.40;99.90;;;;;;4995460;28;20042;-70
2022/03/21 07:35:52;;;;;;;37.13;21.23;;;5.50;99.90;;;;;;4977759;28;20057;-70
2022/03/21 07:38:22;;;;;;;35.20;22.05;;;5.60;99.90;;;;;;4977788;28;20058;-71
2022/03/21 07:40:48;;;;;;;39.28;22.10;;;5.70;99.90;;;;;;4994778;28;20046;-69
2022/03/21 07:43:15;;;;;;;33.33;20.63;;;5.80;99.90;;;;;;4994784;28;20058;-72
2022/03/21 07:48:27;;;;;;;28.90;18.73;;;6.00;99.90;;;;;;4994638;28;20050;-66
2022/03/21 07:50:56;;;;;;;32.83;21.52;;;6.10;99.90;;;;;;4994586;28;20055;-69
2022/03/21 07:53:21;;;;;;;33.28;20.45;;;6.20;99.90;;;;;;4958621;28;20051;-68
2022/03/21 07:55:47;;;;;;;35.78;19.60;;;6.20;99.90;;;;;;4969119;28;20433;-68
2022/03/21 07:58:13;;;;;;;28.48;19.00;;;6.30;99.90;;;;;;4994244;28;20090;-70
2022/03/21 08:00:41;;;;;;;26.70;18.27;;;6.30;99.90;;;;;;4977794;28;20443;-70
2022/03/21 08:03:09;;;;;;;33.67;20.75;;;6.40;99.90;;;;;;4994419;28;20049;-70
2022/03/21 08:05:35;;;;;;;33.63;19.50;;;6.50;99.90;;;;;;4995030;28;20358;-70
2022/03/21 08:08:01;;;;;;;30.77;18.80;;;6.60;99.90;;;;;;4995262;28;20058;-70
2022/03/21 08:10:29;;;;;;;34.08;20.58;;;6.70;99.90;;;;;;4994801;28;20050;-71
2022/03/21 08:12:56;;;;;;;28.83;19.13;;;6.70;99.90;;;;;;4991752;28;20061;-69
2022/03/21 08:15:22;;;;;;;33.42;19.25;;;6.80;99.90;;;;;;4994843;28;20474;-70
2022/03/21 08:17:54;;;;;;;32.80;20.73;;;6.90;99.90;;;;;;4977612;28;20069;-69
2022/03/21 08:20:25;;;;;;;31.63;20.45;;;7.10;99.90;;;;;;4978622;28;20057;-70
2022/03/21 08:22:52;;;;;;;32.15;19.20;;;7.10;99.90;;;;;;4995359;28;20192;-68
2022/03/21 08:25:20;;;;;;;28.63;18.75;;;7.20;99.90;;;;;;4980735;28;20121;-72
2022/03/21 08:27:47;;;;;;;35.65;19.75;;;7.40;99.90;;;;;;4997132;28;20064;-71
2022/03/21 08:30:17;;;;;;;32.30;19.58;;;7.50;99.90;;;;;;4978611;28;20057;-70
2022/03/21 08:32:43;;;;;;;28.15;19.23;;;7.60;99.90;;;;;;4998009;28;20054;-69
2022/03/21 08:35:09;;;;;;;30.80;20.05;;;7.70;99.90;;;;;;4980785;28;20097;-70
2022/03/21 08:37:35;;;;;;;32.75;19.52;;;7.70;99.90;;;;;;4997632;28;20053;-69
2022/03/21 08:40:01;;;;;;;29.35;18.95;;;7.70;99.90;;;;;;4981001;28;20065;-69
2022/03/21 08:42:29;;;;;;;35.70;20.15;;;7.80;99.90;;;;;;4997531;28;20050;-71
2022/03/21 08:44:56;;;;;;;29.05;19.67;;;7.90;99.90;;;;;;4998161;28;20053;-72
2022/03/21 08:47:23;;;;;;;30.33;19.80;;;8.00;99.90;;;;;;4997737;28;20054;-71
2022/03/21 08:49:49;;;;;;;31.00;19.95;;;8.20;99.90;;;;;;4997571;28;20053;-70
2022/03/21 08:52:14;;;;;;;37.40;21.45;;;8.30;99.90;;;;;;4980295;28;20050;-69
2022/03/21 08:54:41;;;;;;;33.65;19.70;;;8.40;99.90;;;;;;4979322;28;20050;-70
2022/03/21 08:57:07;;;;;;;34.80;20.83;;;8.50;99.90;;;;;;4995894;28;20482;-69
2022/03/21 08:59:33;;;;;;;32.42;21.02;;;8.60;99.90;;;;;;4966002;28;20070;-71
2022/03/21 09:01:59;;;;;;;32.45;21.60;;;8.70;99.90;;;;;;4997036;28;20118;-70
2022/03/21 09:04:24;;;;;;;33.50;20.85;;;8.80;99.90;;;;;;4997335;28;20511;-71
2022/03/21 09:06:50;;;;;;;33.67;19.65;;;8.90;99.90;;;;;;4996904;28;20128;-70
2022/03/21 09:09:18;;;;;;;32.85;21.30;;;8.90;99.90;;;;;;4997456;28;20066;-69
2022/03/21 09:11:44;;;;;;;35.78;21.42;;;9.10;99.90;;;;;;4997599;28;20062;-71
2022/03/21 09:14:12;;;;;;;33.58;20.15;;;9.10;99.90;;;;;;4994521;28;20042;-71
2022/03/21 09:16:39;;;;;;;33.13;20.05;;;9.20;99.90;;;;;;4996750;28;20038;-71
2022/03/21 09:19:05;;;;;;;34.63;20.85;;;9.30;99.90;;;;;;4997460;28;20042;-73
2022/03/21 09:21:30;;;;;;;31.60;20.58;;;9.40;99.90;;;;;;4979386;28;20129;-71
2022/03/21 09:23:56;;;;;;;39.85;22.13;;;9.50;99.90;;;;;;4980362;28;20133;-72
2022/03/21 09:26:22;;;;;;;33.75;22.25;;;9.60;99.90;;;;;;4996644;28;20092;-71
2022/03/21 09:28:49;;;;;;;34.28;21.13;;;9.60;99.90;;;;;;4997041;28;20089;-71
2022/03/21 09:31:16;;;;;;;38.20;21.35;;;9.70;99.90;;;;;;4997054;28;20367;-73
2022/03/21 09:33:42;;;;;;;32.83;20.45;;;10.00;99.90;;;;;;4980090;28;20062;-71
2022/03/21 09:36:09;;;;;;;29.40;19.33;;;10.00;99.90;;;;;;4996681;28;20038;-71
2022/03/21 09:38:37;;;;;;;31.42;20.33;;;10.30;99.90;;;;;;4996735;28;20078;-71
2022/03/21 09:41:03;;;;;;;32.28;19.35;;;10.50;99.90;;;;;;4996814;28;20054;-70
2022/03/21 09:43:30;;;;;;;30.63;20.58;;;10.50;99.90;;;;;;4979644;28;20050;-70
2022/03/21 09:46:00;;;;;;;30.85;20.50;;;10.60;99.90;;;;;;4996513;28;20046;-72
2022/03/21 09:48:27;;;;;;;32.15;21.38;;;10.70;99.90;;;;;;4978913;28;20482;-72
2022/03/21 09:50:52;;;;;;;33.50;21.77;;;10.80;99.90;;;;;;4979523;28;20223;-70
2022/03/21 09:53:19;;;;;;;36.10;22.73;;;10.90;99.90;;;;;;4979524;28;20070;-70
2022/03/21 09:55:45;;;;;;;30.38;19.95;;;10.90;99.90;;;;;;4996702;28;20046;-73
2022/03/21 09:58:11;;;;;;;34.10;21.95;;;11.00;99.90;;;;;;4993517;28;20127;-71
2022/03/21 10:00:42;;;;;;;33.70;21.08;;;11.10;99.90;;;;;;4996568;28;20042;-69
2022/03/21 10:03:08;;;;;;;35.72;22.25;;;11.10;99.90;;;;;;4978589;28;20085;-71
2022/03/21 10:05:36;;;;;;;28.60;19.20;;;11.20;99.90;;;;;;4989893;28;20065;-71
2022/03/21 10:08:23;;;;;;;32.55;21.10;;;11.30;99.90;;;;;;4976277;28;20039;-72
2022/03/21 10:11:01;;;;;;;30.02;20.02;;;11.20;99.90;;;;;;4976281;28;20161;-71
2022/03/21 10:13:34;;;;;;;31.02;20.05;;;11.30;99.90;;;;;;4962039;28;20042;-70
2022/03/21 10:16:15;;;;;;;29.75;20.00;;;11.30;99.90;;;;;;4976327;28;20043;-71
2022/03/21 10:19:00;;;;;;;31.77;20.05;;;11.30;99.90;;;;;;4976102;28;20058;-71
2022/03/21 10:21:27;;;;;;;32.88;19.92;;;11.50;99.90;;;;;;4974255;28;20050;-72
2022/03/21 10:24:07;;;;;;;32.80;19.08;;;11.60;99.90;;;;;;4976661;28;20105;-72
2022/03/21 10:26:34;;;;;;;29.30;17.50;;;11.70;99.90;;;;;;4976981;28;20055;-72
2022/03/21 10:29:05;;;;;;;31.02;17.80;;;11.80;99.90;;;;;;4975372;28;20094;-73
2022/03/21 10:31:48;;;;;;;28.25;18.23;;;11.90;99.90;;;;;;4976538;28;20043;-70
2022/03/21 10:34:21;;;;;;;30.55;18.70;;;12.00;99.90;;;;;;4959486;28;20047;-72
2022/03/21 10:37:03;;;;;;;31.05;18.67;;;12.00;99.90;;;;;;4976632;28;20062;-70
2022/03/21 10:39:31;;;;;;;26.38;18.08;;;12.10;99.90;;;;;;4976182;28;20337;-71
2022/03/21 10:42:01;;;;;;;26.65;16.70;;;12.20;99.90;;;;;;4959099;28;20133;-69
2022/03/21 10:44:28;;;;;;;27.83;17.80;;;12.20;99.90;;;;;;4975538;28;20137;-71
2022/03/21 10:46:55;;;;;;;26.38;16.90;;;12.30;99.90;;;;;;4975306;28;20043;-71
2022/03/21 10:49:48;;;;;;;25.35;16.48;;;12.30;99.90;;;;;;4974952;28;20046;-72
2022/03/21 10:52:18;;;;;;;27.13;18.83;;;12.30;99.90;;;;;;4958671;28;20058;-72
2022/03/21 10:54:49;;;;;;;31.65;18.10;;;12.50;99.90;;;;;;4955777;29;20341;-71
2022/03/21 10:57:36;;;;;;;30.38;19.30;;;12.50;99.90;;;;;;4968555;28;20046;-71
2022/03/21 11:00:20;;;;;;;25.42;17.30;;;12.60;99.90;;;;;;4957164;28;20055;-72
2022/03/21 11:02:52;;;;;;;28.63;18.25;;;12.60;99.90;;;;;;4958935;28;20137;-72
2022/03/21 11:05:19;;;;;;;28.95;17.95;;;12.70;99.90;;;;;;4958493;28;20054;-70
2022/03/21 11:07:50;;;;;;;29.48;18.92;;;12.80;99.90;;;;;;4979028;28;20085;-69
2022/03/21 11:10:17;;;;;;;26.65;18.88;;;12.90;99.90;;;;;;4996785;28;20065;-69
2022/03/21 11:12:43;;;;;;;27.73;18.30;;;13.00;99.90;;;;;;4995145;28;20486;-72
2022/03/21 11:15:10;;;;;;;29.38;18.52;;;12.90;99.90;;;;;;4975213;28;20067;-71
2022/03/21 11:17:36;;;;;;;24.85;17.58;;;13.00;99.90;;;;;;4990501;28;20061;-71
2022/03/21 11:20:07;;;;;;;27.08;17.10;;;13.10;99.90;;;;;;4977777;28;20064;-70
2022/03/21 11:22:34;;;;;;;30.23;17.17;;;13.20;99.90;;;;;;4994486;28;20052;-70
2022/03/21 11:25:14;;;;;;;26.23;15.57;;;13.30;99.90;;;;;;4994806;28;20073;-70
2022/03/21 11:28:19;;;;;;;24.65;16.15;;;13.40;99.90;;;;;;4994859;28;20046;-69
2022/03/21 11:31:26;;;;;;;28.00;16.55;;;13.50;99.90;;;;;;4995204;28;20074;-69
2022/03/21 11:34:07;;;;;;;25.48;17.42;;;13.70;99.90;;;;;;4994609;28;20049;-70
2022/03/21 11:36:33;;;;;;;26.90;16.48;;;13.70;99.90;;;;;;4974134;28;20050;-72
2022/03/21 11:39:00;;;;;;;25.42;18.45;;;13.90;99.90;;;;;;4994037;28;20046;-72
2022/03/21 11:41:28;;;;;;;24.40;17.10;;;13.90;99.90;;;;;;4994611;28;20054;-72
2022/03/21 11:44:03;;;;;;;24.90;17.33;;;13.80;99.90;;;;;;4994153;28;20169;-70
2022/03/21 11:46:30;;;;;;;25.08;18.90;;;13.70;99.90;;;;;;4994823;28;20517;-72
2022/03/21 11:49:05;;;;;;;28.55;19.17;;;13.90;99.90;;;;;;4977542;28;20058;-71
2022/03/21 11:51:44;;;;;;;26.90;18.25;;;13.80;99.90;;;;;;4992633;28;20050;-72
2022/03/21 11:54:29;;;;;;;24.58;15.75;;;13.70;99.90;;;;;;4992097;28;20046;-71
2022/03/21 11:56:55;;;;;;;23.45;16.60;;;13.80;99.90;;;;;;4961843;28;20050;-69
2022/03/21 11:59:47;;;;;;;29.55;16.30;;;14.00;99.90;;;;;;4977350;28;20054;-72
2022/03/21 12:02:17;;;;;;;25.45;16.88;;;14.20;99.90;;;;;;4994564;28;20108;-73
2022/03/21 12:04:57;;;;;;;22.90;15.95;;;14.30;99.90;;;;;;4976237;28;20054;-72
2022/03/21 12:07:23;;;;;;;23.92;16.55;;;14.30;99.90;;;;;;4994960;28;20050;-71
2022/03/21 12:09:50;;;;;;;25.75;17.15;;;14.40;99.90;;;;;;4977703;28;20455;-71
2022/03/21 12:12:18;;;;;;;27.25;16.60;;;14.40;99.90;;;;;;4994502;28;20054;-73
2022/03/21 12:14:54;;;;;;;27.38;17.25;;;14.60;99.90;;;;;;4994082;28;20459;-73
2022/03/21 12:17:23;;;;;;;24.02;15.93;;;14.70;99.90;;;;;;4994169;28;20085;-72
2022/03/21 12:19:54;;;;;;;30.65;17.60;;;14.70;99.90;;;;;;4994062;28;20046;-73
2022/03/21 12:22:33;;;;;;;20.70;15.60;;;14.80;99.90;;;;;;4994314;28;20057;-71
2022/03/21 12:25:26;;;;;;;28.33;17.63;;;14.80;99.90;;;;;;4994128;28;20054;-71
2022/03/21 12:27:56;;;;;;;27.87;17.43;;;14.80;99.30;;;;;;4977462;28;20081;-72
2022/03/21 12:30:30;;;;;;;30.10;18.55;;;14.90;99.90;;;;;;4994820;28;20061;-72
2022/03/21 12:33:19;;;;;;;26.98;17.50;;;14.80;99.30;;;;;;4993517;28;20137;-73
2022/03/21 12:35:47;;;;;;;30.15;16.77;;;14.80;99.20;;;;;;4972265;28;20459;-72
2022/03/21 12:38:24;;;;;;;25.50;14.95;;;14.90;99.60;;;;;;4998364;28;20497;-72
2022/03/21 12:40:53;;;;;;;22.90;13.70;;;14.90;99.40;;;;;;5013203;28;20437;-71
2022/03/21 12:43:42;;;;;;;24.33;16.17;;;15.00;99.90;;;;;;5013518;28;20046;-72
2022/03/21 12:46:12;;;;;;;22.90;14.23;;;15.10;98.50;;;;;;5011123;28;20038;-73
2022/03/21 12:48:43;;;;;;;29.23;16.60;;;15.20;98.40;;;;;;4996422;28;20050;-71
2022/03/21 12:51:12;;;;;;;30.90;15.23;;;15.20;97.40;;;;;;5008257;28;20041;-72
2022/03/21 12:53:48;;;;;;;23.88;16.10;;;15.30;98.10;;;;;;5013305;28;20100;-72
2022/03/21 12:56:17;;;;;;;25.25;16.45;;;15.30;95.40;;;;;;5009588;28;20042;-72
2022/03/21 12:58:47;;;;;;;24.33;14.40;;;15.30;96.50;;;;;;4996559;28;20038;-71
2022/03/21 13:01:14;;;;;;;25.42;14.68;;;15.40;98.30;;;;;;5013612;28;20034;-70
2022/03/21 13:03:40;;;;;;;29.30;16.00;;;15.40;98.50;;;;;;5010550;28;20439;-70